Terminal Aerodrome Forecast
Issued by NWS

Home | Current Version | Previous Version | Graphics & Text | Print | Product List | Glossary On
Versions: 1 2 3 4 5 6 7 8 9 10 11 12 13 14 15 16 17 18 19
125
FTUS43 KTOP 240520
TAFMHK
TAF
KMHK 240520Z 2406/2506 VRB03KT P6SM SCT250
     FM242000 35006KT P6SM BKN110
     FM242100 35007KT P6SM VCSH BKN090=

USA.gov is the U.S. government's official web portal to all federal, state and local government web resources and services.